createdAt,value
2019-04-10T00:01:12.152Z,9.70
2019-04-10T00:03:41.719Z,9.20
2019-04-10T00:06:06.754Z,9.23
2019-04-10T00:08:32.873Z,9.53
2019-04-10T00:10:58.876Z,8.90
2019-04-10T00:13:26.607Z,10.07
2019-04-10T00:15:52.953Z,10.87
2019-04-10T00:18:19.959Z,10.07
2019-04-10T00:20:46.950Z,10.23
2019-04-10T00:23:13.193Z,10.90
2019-04-10T00:25:39.299Z,10.10
2019-04-10T00:28:05.382Z,11.53
2019-04-10T00:30:31.556Z,9.70
2019-04-10T00:32:58.518Z,11.03
2019-04-10T00:35:25.569Z,10.13
2019-04-10T00:37:51.654Z,10.20
2019-04-10T00:40:17.627Z,10.53
2019-04-10T00:42:43.643Z,10.53
2019-04-10T00:45:09.757Z,10.40
2019-04-10T00:47:35.775Z,10.67
2019-04-10T00:50:02.389Z,11.07
2019-04-10T00:52:28.460Z,11.20
2019-04-10T00:54:55.361Z,10.67
2019-04-10T00:57:21.486Z,10.53
2019-04-10T00:59:48.419Z,8.90
2019-04-10T01:02:14.675Z,10.20
2019-04-10T01:04:40.784Z,10.23
2019-04-10T01:07:06.847Z,10.80
2019-04-10T01:09:33.267Z,10.43
2019-04-10T01:11:59.433Z,11.00
2019-04-10T01:14:25.534Z,9.47
2019-04-10T01:16:51.581Z,9.60
2019-04-10T01:19:17.618Z,10.20
2019-04-10T01:21:44.294Z,9.70
2019-04-10T01:24:11.097Z,9.47
2019-04-10T01:26:37.186Z,9.07
2019-04-10T01:29:03.236Z,9.33
2019-04-10T01:31:29.253Z,10.30
2019-04-10T01:33:55.392Z,10.30
2019-04-10T01:36:21.351Z,8.87
2019-04-10T01:38:47.337Z,9.13
2019-04-10T01:41:13.336Z,10.13
2019-04-10T01:43:39.351Z,9.20
2019-04-10T01:46:06.268Z,8.80
2019-04-10T01:48:32.929Z,9.07
2019-04-10T01:50:59.079Z,9.27
2019-04-10T01:53:25.964Z,7.97
2019-04-10T01:55:53.512Z,8.97
2019-04-10T01:58:21.516Z,9.00
2019-04-10T02:00:50.676Z,8.73
2019-04-10T02:03:17.836Z,8.93
2019-04-10T02:05:44.943Z,9.90
2019-04-10T02:08:13.580Z,8.70
2019-04-10T02:10:38.884Z,11.70
2019-04-10T02:13:05.359Z,10.67
2019-04-10T02:15:32.208Z,10.77
2019-04-10T02:17:59.138Z,10.77
2019-04-10T02:20:25.295Z,11.13
2019-04-10T02:22:51.936Z,11.03
2019-04-10T02:25:18.091Z,11.20
2019-04-10T02:27:44.722Z,10.87
2019-04-10T02:30:12.723Z,11.03
2019-04-10T02:32:41.141Z,10.40
2019-04-10T02:35:10.543Z,10.83
2019-04-10T02:37:35.285Z,10.77
2019-04-10T02:40:04.594Z,10.60
2019-04-10T02:42:30.219Z,11.23
2019-04-10T02:44:57.814Z,10.80
2019-04-10T02:47:23.919Z,11.37
2019-04-10T02:49:49.888Z,9.60
2019-04-10T02:52:16.718Z,11.23
2019-04-10T02:54:43.632Z,11.90
2019-04-10T02:57:11.249Z,11.20
2019-04-10T02:59:37.662Z,10.33
2019-04-10T03:02:04.262Z,10.17
2019-04-10T03:04:31.103Z,10.20
2019-04-10T03:06:57.667Z,10.90
2019-04-10T03:09:40.534Z,10.13
2019-04-10T03:11:51.970Z,10.77
2019-04-10T03:14:18.968Z,10.90
2019-04-10T03:16:45.733Z,10.70
2019-04-10T03:19:11.856Z,11.70
2019-04-10T03:21:37.972Z,11.30
2019-04-10T03:24:04.249Z,12.53
2019-04-10T03:26:30.400Z,11.27
2019-04-10T03:28:56.376Z,10.63
2019-04-10T03:31:22.996Z,11.23
2019-04-10T03:33:54.612Z,10.37
2019-04-10T03:36:21.137Z,10.60
2019-04-10T03:38:56.255Z,11.50
2019-04-10T03:41:15.735Z,12.37
2019-04-10T03:43:41.808Z,12.03
2019-04-10T03:46:08.863Z,13.40
2019-04-10T03:48:34.956Z,13.60
2019-04-10T03:51:00.932Z,10.37
2019-04-10T03:53:27.024Z,11.57
2019-04-10T03:55:53.611Z,11.10
2019-04-10T03:58:19.753Z,10.33
2019-04-10T04:00:46.695Z,10.20
2019-04-10T04:03:12.844Z,10.50
2019-04-10T04:05:39.109Z,11.40
2019-04-10T04:08:05.511Z,10.47
2019-04-10T04:10:32.710Z,12.20
2019-04-10T04:13:00.006Z,11.90
2019-04-10T04:15:26.191Z,10.43
2019-04-10T04:17:52.654Z,9.93
2019-04-10T04:20:19.108Z,10.50
2019-04-10T04:22:46.103Z,10.57
2019-04-10T04:25:12.832Z,9.87
2019-04-10T04:27:39.821Z,10.50
2019-04-10T04:30:08.338Z,10.57
2019-04-10T04:32:34.621Z,10.60
2019-04-10T04:35:00.662Z,9.20
2019-04-10T04:37:26.673Z,9.57
2019-04-10T04:39:52.732Z,10.60
2019-04-10T04:42:18.704Z,11.97
2019-04-10T04:44:45.412Z,11.27
2019-04-10T04:47:11.517Z,12.50
2019-04-10T04:49:37.812Z,10.23
2019-04-10T04:52:03.912Z,10.70
2019-04-10T04:54:30.948Z,10.30
2019-04-10T04:56:58.064Z,10.70
2019-04-10T04:59:24.170Z,10.33
2019-04-10T05:01:50.227Z,10.03
2019-04-10T05:04:17.210Z,9.47
2019-04-10T05:06:43.745Z,9.37
2019-04-10T05:09:09.824Z,9.20
2019-04-10T05:11:36.410Z,8.20
2019-04-10T05:14:02.790Z,9.87
2019-04-10T05:16:28.897Z,7.97
2019-04-10T05:18:54.862Z,8.50
2019-04-10T05:21:21.316Z,9.10
2019-04-10T05:23:47.496Z,9.67
2019-04-10T05:26:14.349Z,10.90
2019-04-10T05:28:40.524Z,11.67
2019-04-10T05:31:06.843Z,9.40
2019-04-10T05:33:33.265Z,10.37
2019-04-10T05:35:59.374Z,11.03
2019-04-10T05:38:25.628Z,10.73
2019-04-10T05:40:52.692Z,10.87
2019-04-10T05:43:19.863Z,10.17
2019-04-10T05:45:46.496Z,10.80
2019-04-10T05:48:12.591Z,10.87
2019-04-10T05:50:39.789Z,10.47
2019-04-10T05:53:06.102Z,11.10
2019-04-10T05:55:33.027Z,10.00
2019-04-10T05:57:59.438Z,12.10
2019-04-10T06:00:26.980Z,10.33
2019-04-10T06:02:54.073Z,9.93
2019-04-10T06:05:20.361Z,10.03
2019-04-10T06:07:47.334Z,10.23
2019-04-10T06:10:13.641Z,10.70
2019-04-10T06:12:39.605Z,7.90
2019-04-10T06:15:06.473Z,8.73
2019-04-10T06:17:32.525Z,8.60
2019-04-10T06:19:58.751Z,8.80
2019-04-10T06:22:24.740Z,9.07
2019-04-10T06:24:50.712Z,8.50
2019-04-10T06:27:16.721Z,9.17
2019-04-10T06:29:43.417Z,9.07
2019-04-10T06:32:11.488Z,9.63
2019-04-10T06:34:39.215Z,8.83
2019-04-10T06:37:06.146Z,11.33
2019-04-10T06:39:33.083Z,11.43
2019-04-10T06:42:00.310Z,12.27
2019-04-10T06:44:26.511Z,9.53
2019-04-10T06:46:52.905Z,8.70
2019-04-10T06:49:19.095Z,8.60
2019-04-10T06:51:45.214Z,7.53
2019-04-10T06:54:12.682Z,6.43
2019-04-10T06:56:39.044Z,5.23
2019-04-10T06:59:05.287Z,5.10
2019-04-10T07:01:40.596Z,6.20
2019-04-10T07:04:04.061Z,5.10
2019-04-10T07:06:44.630Z,4.70
2019-04-10T07:08:55.496Z,5.13
2019-04-10T07:11:23.415Z,4.10
2019-04-10T07:13:49.687Z,4.60
2019-04-10T07:16:15.966Z,4.07
2019-04-10T07:18:45.834Z,5.67
2019-04-10T07:21:10.596Z,4.50
2019-04-10T07:23:36.703Z,5.10
2019-04-10T07:26:03.742Z,5.20
2019-04-10T07:28:29.947Z,3.70
2019-04-10T07:30:59.381Z,4.20
2019-04-10T07:33:24.567Z,3.57
2019-04-10T07:35:53.357Z,2.87
2019-04-10T07:38:21.123Z,3.17
2019-04-10T07:40:47.026Z,4.03
2019-04-10T07:43:13.365Z,3.53
2019-04-10T07:45:39.486Z,4.53
2019-04-10T07:48:06.533Z,3.90
2019-04-10T07:50:32.746Z,3.47
2019-04-10T07:52:59.797Z,3.40
2019-04-10T07:55:25.869Z,3.93
2019-04-10T07:57:53.096Z,3.47
2019-04-10T08:00:20.117Z,3.13
2019-04-10T08:02:46.911Z,2.90
2019-04-10T08:05:13.322Z,3.30
2019-04-10T08:07:40.522Z,2.73
2019-04-10T08:10:07.820Z,2.83
2019-04-10T08:12:42.446Z,3.13
2019-04-10T08:15:04.943Z,4.03
2019-04-10T08:17:31.059Z,3.40
2019-04-10T08:19:57.323Z,5.10
2019-04-10T08:22:23.488Z,2.73
2019-04-10T08:24:49.502Z,2.80
2019-04-10T08:27:15.536Z,2.97
2019-04-10T08:29:42.764Z,3.13
2019-04-10T08:32:09.862Z,2.97
2019-04-10T08:34:36.018Z,2.67
2019-04-10T08:37:02.040Z,3.10
2019-04-10T08:39:36.838Z,3.03
2019-04-10T08:41:55.972Z,2.80
2019-04-10T08:44:22.199Z,3.00
2019-04-10T08:46:48.380Z,2.87
2019-04-10T08:49:14.605Z,2.73
2019-04-10T08:51:41.544Z,3.63
2019-04-10T08:54:07.974Z,3.60
2019-04-10T08:56:34.044Z,2.77
2019-04-10T08:59:00.346Z,4.07
2019-04-10T09:01:26.460Z,2.87
2019-04-10T09:03:52.469Z,3.07
2019-04-10T09:06:19.496Z,2.63
2019-04-10T09:08:45.574Z,3.40
2019-04-10T09:11:11.595Z,3.37
2019-04-10T09:13:37.568Z,3.70
2019-04-10T09:16:04.543Z,2.80
2019-04-10T09:18:31.544Z,3.17
2019-04-10T09:20:57.592Z,2.60
2019-04-10T09:23:35.399Z,2.27
2019-04-10T09:25:51.514Z,2.63
2019-04-10T09:28:18.179Z,2.07
2019-04-10T09:30:44.873Z,2.33
2019-04-10T09:33:19.729Z,2.40
2019-04-10T09:35:40.457Z,2.60
2019-04-10T09:38:06.496Z,3.13
2019-04-10T09:40:32.809Z,4.10
2019-04-10T09:42:59.711Z,4.20
2019-04-10T09:45:26.667Z,2.73
2019-04-10T09:47:52.743Z,3.57
2019-04-10T09:50:19.327Z,2.63
2019-04-10T09:52:46.245Z,3.00
2019-04-10T09:55:13.754Z,3.50
2019-04-10T09:57:40.898Z,3.07
2019-04-10T10:00:07.609Z,5.13
2019-04-10T10:02:33.768Z,3.07
2019-04-10T10:05:00.044Z,3.90
2019-04-10T10:07:26.377Z,3.80
2019-04-10T10:09:52.504Z,3.67
2019-04-10T10:12:18.479Z,5.43
2019-04-10T10:14:44.474Z,4.37
2019-04-10T10:17:10.703Z,5.67
2019-04-10T10:19:36.781Z,6.00
2019-04-10T10:22:04.622Z,7.40
2019-04-10T10:24:30.987Z,7.43
2019-04-10T10:26:57.750Z,5.70
2019-04-10T10:29:23.869Z,5.20
2019-04-10T10:31:52.205Z,4.03
2019-04-10T10:34:18.486Z,4.10
2019-04-10T10:36:46.650Z,5.47
2019-04-10T10:39:17.445Z,4.93
2019-04-10T10:41:44.672Z,4.83
2019-04-10T10:44:11.048Z,4.83
2019-04-10T10:46:37.734Z,4.90
2019-04-10T10:49:04.211Z,5.27
2019-04-10T10:51:30.892Z,4.20
2019-04-10T10:53:59.665Z,4.40
2019-04-10T10:56:24.855Z,4.80
2019-04-10T10:58:50.868Z,4.93
2019-04-10T11:01:17.887Z,5.80
2019-04-10T11:03:44.582Z,5.97
2019-04-10T11:06:10.892Z,6.60
2019-04-10T11:08:37.349Z,5.23
2019-04-10T11:11:04.190Z,6.10
2019-04-10T11:13:30.862Z,4.67
2019-04-10T11:15:56.936Z,3.80
2019-04-10T11:18:22.960Z,5.60
2019-04-10T11:20:49.897Z,5.33
2019-04-10T11:23:15.980Z,5.03
2019-04-10T11:25:42.101Z,4.60
2019-04-10T11:28:08.142Z,4.27
2019-04-10T11:30:34.605Z,4.40
2019-04-10T11:33:02.446Z,4.50
2019-04-10T11:35:28.966Z,4.10
2019-04-10T11:37:59.025Z,4.53
2019-04-10T11:40:23.528Z,5.10
2019-04-10T11:42:51.486Z,6.60
2019-04-10T11:45:19.055Z,5.20
2019-04-10T11:50:38.091Z,4.53
2019-04-10T11:53:04.526Z,5.20
2019-04-10T11:55:43.760Z,5.30
2019-04-10T11:58:14.513Z,5.43
2019-04-10T12:01:08.548Z,5.37
2019-04-10T12:03:56.561Z,4.20
2019-04-10T12:06:37.661Z,6.43
2019-04-10T12:10:16.903Z,5.07
2019-04-10T12:12:19.856Z,6.63
2019-04-10T12:14:59.814Z,5.00
2019-04-10T12:17:26.225Z,5.13
2019-04-10T12:20:06.943Z,4.90
2019-04-10T12:22:33.845Z,4.20
2019-04-10T12:25:29.117Z,3.93
2019-04-10T12:30:51.765Z,3.80
2019-04-10T12:33:31.726Z,3.50
2019-04-10T12:36:12.060Z,2.77
2019-04-10T12:38:51.939Z,3.27
2019-04-10T12:41:31.874Z,3.67
2019-04-10T12:44:11.652Z,2.67
2019-04-10T12:46:51.206Z,3.10
2019-04-10T12:49:31.698Z,3.20
2019-04-10T12:51:58.374Z,2.97
2019-04-10T12:55:16.505Z,3.33
2019-04-10T13:00:42.903Z,3.40
2019-04-10T13:03:16.720Z,3.30
2019-04-10T13:06:09.993Z,3.27
2019-04-10T13:08:59.107Z,3.67
2019-04-10T13:11:30.047Z,3.00
2019-04-10T13:20:37.891Z,3.50
2019-04-10T13:26:42.140Z,2.80
2019-04-10T13:29:22.480Z,3.00
2019-04-10T13:32:03.406Z,2.73
2019-04-10T13:34:43.790Z,2.50
2019-04-10T13:37:10.243Z,2.80
2019-04-10T13:40:05.550Z,2.70
2019-04-10T13:42:31.955Z,2.60
2019-04-10T13:45:19.721Z,2.97
2019-04-10T13:54:14.479Z,2.67
2019-04-10T13:56:53.581Z,3.93
2019-04-10T13:59:20.801Z,3.13
2019-04-10T14:05:09.476Z,3.40
2019-04-10T14:07:49.402Z,3.67
2019-04-10T14:10:29.534Z,3.77
2019-04-10T14:12:56.554Z,3.43
2019-04-10T14:15:50.442Z,3.60
2019-04-10T14:21:40.739Z,3.60
2019-04-10T14:24:20.009Z,3.77
2019-04-10T14:30:16.561Z,3.60
2019-04-10T14:35:51.557Z,5.43
2019-04-10T14:38:31.543Z,3.90
2019-04-10T14:44:21.929Z,3.43
2019-04-10T14:50:20.517Z,4.10
2019-04-10T14:55:27.223Z,3.60
2019-04-10T14:58:22.805Z,4.27
2019-04-10T15:00:55.080Z,3.93
2019-04-10T15:03:52.935Z,4.10
2019-04-10T15:07:00.086Z,4.30
2019-04-10T15:12:37.422Z,3.70
2019-04-10T15:15:32.404Z,4.27
2019-04-10T15:18:18.529Z,3.77
2019-04-10T15:21:07.032Z,4.30
2019-04-10T15:24:01.412Z,4.20
2019-04-10T15:29:18.309Z,3.90
2019-04-10T15:32:12.746Z,3.57
2019-04-10T15:38:09.779Z,4.00
2019-04-10T15:40:50.361Z,4.93
2019-04-10T15:52:36.191Z,4.17
2019-04-10T16:01:47.057Z,4.00
2019-04-10T16:04:27.458Z,3.77
2019-04-10T16:13:24.094Z,3.67
2019-04-10T16:21:52.708Z,4.00
2019-04-10T16:27:20.175Z,3.93
2019-04-10T16:30:02.084Z,3.63
2019-04-10T16:35:05.393Z,4.00
2019-04-10T16:37:31.409Z,5.10
2019-04-10T16:40:11.794Z,4.70
2019-04-10T16:42:51.558Z,4.37
2019-04-10T16:48:42.221Z,4.00
2019-04-10T16:51:08.293Z,4.13
2019-04-10T16:57:12.742Z,4.40
2019-04-10T16:59:39.550Z,4.03
2019-04-10T17:08:57.208Z,4.60
2019-04-10T17:11:36.929Z,4.10
2019-04-10T17:14:17.484Z,4.47
2019-04-10T17:16:57.837Z,3.80
2019-04-10T17:19:23.918Z,4.30
2019-04-10T17:22:10.928Z,3.53
2019-04-10T17:24:58.009Z,4.50
2019-04-10T17:27:38.026Z,4.90
2019-04-10T17:30:25.347Z,4.20
2019-04-10T17:32:58.592Z,5.50
2019-04-10T17:35:38.486Z,4.40
2019-04-10T17:38:38.620Z,4.50
2019-04-10T17:41:17.881Z,4.17
2019-04-10T17:47:29.165Z,4.30
2019-04-10T17:50:09.956Z,5.10
2019-04-10T17:52:49.324Z,4.80
2019-04-10T17:55:29.386Z,4.97
2019-04-10T17:58:09.696Z,6.03
2019-04-10T18:00:55.758Z,4.60
2019-04-10T18:03:51.712Z,4.50
2019-04-10T18:06:39.438Z,4.33
2019-04-10T18:15:11.708Z,3.60
2019-04-10T18:17:57.852Z,3.03
2019-04-10T18:23:19.679Z,3.93
2019-04-10T18:26:00.204Z,3.87
2019-04-10T18:32:05.502Z,3.90
2019-04-10T18:34:45.092Z,3.37
2019-04-10T18:37:25.637Z,4.20
2019-04-10T18:43:29.255Z,4.70
2019-04-10T18:46:06.139Z,3.93
2019-04-10T18:48:49.524Z,3.83
2019-04-10T18:51:29.880Z,3.97
2019-04-10T18:54:12.231Z,3.30
2019-04-10T18:56:51.444Z,4.03
2019-04-10T18:59:36.454Z,3.87
2019-04-10T19:02:45.260Z,3.57
2019-04-10T19:05:31.870Z,3.43
2019-04-10T19:08:15.678Z,3.83
2019-04-10T19:10:41.276Z,3.47
2019-04-10T19:13:47.528Z,3.10
2019-04-10T19:16:28.224Z,3.40
2019-04-10T19:24:58.342Z,3.80
2019-04-10T19:27:52.630Z,3.60
2019-04-10T19:30:41.463Z,3.50
2019-04-10T19:33:21.846Z,3.60
2019-04-10T19:36:03.624Z,3.80
2019-04-10T19:38:43.593Z,3.93
2019-04-10T19:44:41.387Z,3.77
2019-04-10T19:47:08.242Z,3.67
2019-04-10T19:53:57.546Z,3.30
2019-04-10T19:59:48.727Z,3.20
2019-04-10T20:02:27.755Z,2.80
2019-04-10T20:04:53.793Z,3.13
2019-04-10T20:07:20.702Z,4.53
2019-04-10T20:13:36.115Z,2.90
2019-04-10T20:16:02.753Z,3.90
2019-04-10T20:18:57.125Z,3.80
2019-04-10T20:24:32.823Z,3.40
2019-04-10T20:27:18.818Z,3.70
2019-04-10T20:29:59.333Z,3.50
2019-04-10T20:32:38.582Z,3.73
2019-04-10T20:35:18.559Z,3.00
2019-04-10T20:37:44.996Z,4.27
2019-04-10T20:40:32.555Z,3.50
2019-04-10T20:43:11.388Z,3.73
2019-04-10T20:45:57.908Z,3.60
2019-04-10T20:48:44.663Z,3.70
2019-04-10T20:51:24.964Z,3.07
2019-04-10T20:53:51.123Z,3.93
2019-04-10T20:56:18.316Z,3.40
2019-04-10T20:59:34.995Z,4.10
2019-04-10T21:02:22.244Z,4.80
2019-04-10T21:05:10.929Z,4.00
2019-04-10T21:07:37.466Z,3.33
2019-04-10T21:10:25.539Z,4.10
2019-04-10T21:16:00.721Z,4.13
2019-04-10T21:18:53.930Z,3.73
2019-04-10T21:24:32.279Z,4.53
2019-04-10T21:27:18.585Z,3.90
2019-04-10T21:30:17.860Z,4.03
2019-04-10T21:33:05.756Z,3.97
2019-04-10T21:35:52.518Z,3.83
2019-04-10T21:38:32.522Z,4.10
2019-04-10T21:41:13.836Z,3.93
2019-04-10T21:43:40.981Z,4.00
2019-04-10T21:46:14.769Z,5.93
2019-04-10T21:48:55.128Z,4.60
2019-04-10T21:54:31.377Z,3.60
2019-04-10T21:57:05.425Z,4.40
2019-04-10T21:59:45.514Z,3.43
2019-04-10T22:02:24.851Z,4.03
2019-04-10T22:05:30.988Z,4.67
2019-04-10T22:11:19.284Z,4.37
2019-04-10T22:13:58.214Z,4.60
2019-04-10T22:16:38.034Z,3.93
2019-04-10T22:19:18.504Z,4.17
2019-04-10T22:21:46.225Z,4.03
2019-04-10T22:26:58.620Z,4.37
2019-04-10T22:29:46.879Z,4.73
2019-04-10T22:32:26.913Z,4.03
2019-04-10T22:35:06.718Z,3.77
2019-04-10T22:37:46.509Z,4.20
2019-04-10T22:40:25.698Z,3.67
2019-04-10T22:43:05.494Z,4.20
2019-04-10T22:46:13.321Z,4.77
2019-04-10T22:48:59.336Z,4.17
2019-04-10T22:51:38.319Z,3.83
2019-04-10T22:54:04.576Z,4.53
2019-04-10T22:56:50.593Z,4.37
2019-04-10T22:59:30.614Z,4.90
2019-04-10T23:02:12.927Z,5.37
2019-04-10T23:04:39.152Z,4.40
2019-04-10T23:07:13.516Z,4.40
2019-04-10T23:09:48.662Z,4.90
2019-04-10T23:12:52.268Z,4.30
2019-04-10T23:15:15.854Z,4.90
2019-04-10T23:17:41.878Z,4.67
2019-04-10T23:20:50.259Z,4.83
2019-04-10T23:23:30.709Z,4.00
2019-04-10T23:25:56.849Z,5.10
2019-04-10T23:28:43.992Z,5.40
2019-04-10T23:31:51.817Z,5.33
2019-04-10T23:34:18.870Z,4.50
2019-04-10T23:36:52.642Z,5.10
2019-04-10T23:42:44.241Z,4.63
2019-04-10T23:48:33.388Z,4.83
2019-04-10T23:51:12.954Z,4.90
2019-04-10T23:53:53.037Z,4.50
2019-04-10T23:56:19.818Z,4.70
2019-04-10T23:59:13.304Z,4.83
